Brandt, South Dakota
Current Conditions -  °F | °C
As of 8:14 AM on Sunday 23 Nov 2014 (Local Time) from KCNB Reporting Station
Overcast Overcast  
Wind Chill: 35°   Ceiling: 8000
Heat Index: 39°   Visibility: 10mi
Dew Point: 35°   Wind: 6mph
Humidity: 84%   Direction: 280°W
Pressure: 29.49"   Gusts: NA
Location:  44.66°N, 96.62°W
Report Text: KCNB 231414Z AUTO 28005KT 10SM OVC080 04/02 A2949 RMK AO2 T00400015
Loading
Personal Weather Stations






























Interactive Weather Map New forecast layout! Learn more

10-Day Weather Forecast

Advertisements
Track Severe Weather on mobile